South Woodstock, Connecticut
Current Conditions -  °F | °C
As of 2:52 PM on Wednesday 17 Dec 2014 (Local Time) from KIJD Reporting Station
Overcast Overcast  
Wind Chill: 50°   Ceiling: 2400
Heat Index: 50°   Visibility: 10mi
Dew Point: 40°   Wind: 5mph
Humidity: 68%   Direction: 280°W
Pressure: 29.74"   Gusts: NA
Location:  41.93°N, 71.96°W
Report Text: KIJD 171952Z AUTO 28004KT 10SM BKN024 OVC040 10/04 A2974 RMK AO2 SLP073 T01000044
Loading
Personal Weather Stations






























Interactive Weather Map New forecast layout! Learn more

10-Day Weather Forecast

Advertisements
Track Severe Weather on mobile